sensor_id;sensor_type;location;lat;lon;timestamp;temperature;humidity
77207;DHT22;66190;50.708;7.906;2023-03-04T00:01:37;0.00;99.90
77207;DHT22;66190;50.708;7.906;2023-03-04T00:04:03;0.10;99.90
77207;DHT22;66190;50.708;7.906;2023-03-04T00:06:29;0.20;99.90
77207;DHT22;66190;50.708;7.906;2023-03-04T00:08:55;0.30;99.90
77207;DHT22;66190;50.708;7.906;2023-03-04T00:11:25;0.30;99.90
77207;DHT22;66190;50.708;7.906;2023-03-04T00:13:51;0.30;99.90
77207;DHT22;66190;50.708;7.906;2023-03-04T00:16:20;0.20;99.90
77207;DHT22;66190;50.708;7.906;2023-03-04T00:18:45;0.30;99.90
77207;DHT22;66190;50.708;7.906;2023-03-04T00:21:11;0.30;99.90
77207;DHT22;66190;50.708;7.906;2023-03-04T00:23:37;0.30;99.90
77207;DHT22;66190;50.708;7.906;2023-03-04T00:26:02;0.30;99.90
77207;DHT22;66190;50.708;7.906;2023-03-04T00:28:28;0.30;99.90
77207;DHT22;66190;50.708;7.906;2023-03-04T00:30:53;0.30;99.90
77207;DHT22;66190;50.708;7.906;2023-03-04T00:33:19;0.30;99.90
77207;DHT22;66190;50.708;7.906;2023-03-04T00:35:45;0.30;99.90
77207;DHT22;66190;50.708;7.906;2023-03-04T00:38:10;0.30;99.90
77207;DHT22;66190;50.708;7.906;2023-03-04T00:40:36;0.40;99.90
77207;DHT22;66190;50.708;7.906;2023-03-04T00:43:02;0.30;99.90
77207;DHT22;66190;50.708;7.906;2023-03-04T00:45:31;0.40;99.90
77207;DHT22;66190;50.708;7.906;2023-03-04T00:47:56;0.30;99.90
77207;DHT22;66190;50.708;7.906;2023-03-04T00:50:22;0.40;99.90
77207;DHT22;66190;50.708;7.906;2023-03-04T00:52:49;0.40;99.90
77207;DHT22;66190;50.708;7.906;2023-03-04T00:55:15;0.40;99.90
77207;DHT22;66190;50.708;7.906;2023-03-04T00:57:40;0.40;99.90
77207;DHT22;66190;50.708;7.906;2023-03-04T01:00:06;0.40;99.90
77207;DHT22;66190;50.708;7.906;2023-03-04T01:02:32;0.30;99.90
77207;DHT22;66190;50.708;7.906;2023-03-04T01:04:58;0.30;99.90
77207;DHT22;66190;50.708;7.906;2023-03-04T01:07:24;0.30;99.90
77207;DHT22;66190;50.708;7.906;2023-03-04T01:09:50;0.30;99.90
77207;DHT22;66190;50.708;7.906;2023-03-04T01:12:16;0.40;99.90
77207;DHT22;66190;50.708;7.906;2023-03-04T01:14:41;0.40;99.90
77207;DHT22;66190;50.708;7.906;2023-03-04T01:17:07;0.40;99.90
77207;DHT22;66190;50.708;7.906;2023-03-04T01:19:33;0.40;99.90
77207;DHT22;66190;50.708;7.906;2023-03-04T01:21:59;0.40;99.90
77207;DHT22;66190;50.708;7.906;2023-03-04T01:24:26;0.40;99.90
77207;DHT22;66190;50.708;7.906;2023-03-04T01:26:55;0.40;99.90
77207;DHT22;66190;50.708;7.906;2023-03-04T01:29:21;0.40;99.90
77207;DHT22;66190;50.708;7.906;2023-03-04T01:31:47;0.40;99.90
77207;DHT22;66190;50.708;7.906;2023-03-04T01:34:13;0.40;99.90
77207;DHT22;66190;50.708;7.906;2023-03-04T01:36:39;0.40;99.90
77207;DHT22;66190;50.708;7.906;2023-03-04T01:39:05;0.50;99.90
77207;DHT22;66190;50.708;7.906;2023-03-04T01:41:30;0.50;99.90
77207;DHT22;66190;50.708;7.906;2023-03-04T01:43:57;0.50;99.90
77207;DHT22;66190;50.708;7.906;2023-03-04T01:46:25;0.50;99.90
77207;DHT22;66190;50.708;7.906;2023-03-04T01:48:51;0.60;99.90
77207;DHT22;66190;50.708;7.906;2023-03-04T01:51:18;0.50;99.90
77207;DHT22;66190;50.708;7.906;2023-03-04T01:53:47;0.60;99.90
77207;DHT22;66190;50.708;7.906;2023-03-04T01:56:28;0.60;99.90
77207;DHT22;66190;50.708;7.906;2023-03-04T01:59:10;0.50;99.90
77207;DHT22;66190;50.708;7.906;2023-03-04T02:01:38;0.50;99.90
77207;DHT22;66190;50.708;7.906;2023-03-04T02:04:05;0.60;99.90
77207;DHT22;66190;50.708;7.906;2023-03-04T02:06:32;0.60;99.90
77207;DHT22;66190;50.708;7.906;2023-03-04T02:08:58;0.60;99.90
77207;DHT22;66190;50.708;7.906;2023-03-04T02:11:23;0.60;99.90
77207;DHT22;66190;50.708;7.906;2023-03-04T02:13:52;0.60;99.90
77207;DHT22;66190;50.708;7.906;2023-03-04T02:16:18;0.60;99.90
77207;DHT22;66190;50.708;7.906;2023-03-04T02:18:44;0.60;99.90
77207;DHT22;66190;50.708;7.906;2023-03-04T02:21:12;0.60;99.90
77207;DHT22;66190;50.708;7.906;2023-03-04T02:26:21;0.60;99.90
77207;DHT22;66190;50.708;7.906;2023-03-04T02:28:49;0.60;99.90
77207;DHT22;66190;50.708;7.906;2023-03-04T02:31:39;0.60;99.90
77207;DHT22;66190;50.708;7.906;2023-03-04T02:34:11;0.60;99.90
77207;DHT22;66190;50.708;7.906;2023-03-04T02:36:38;0.60;99.90
77207;DHT22;66190;50.708;7.906;2023-03-04T02:39:09;0.60;99.90
77207;DHT22;66190;50.708;7.906;2023-03-04T02:41:35;0.60;99.90
77207;DHT22;66190;50.708;7.906;2023-03-04T02:44:01;0.60;99.90
77207;DHT22;66190;50.708;7.906;2023-03-04T02:46:27;0.60;99.90
77207;DHT22;66190;50.708;7.906;2023-03-04T02:48:52;0.60;99.90
77207;DHT22;66190;50.708;7.906;2023-03-04T02:51:18;0.60;99.90
77207;DHT22;66190;50.708;7.906;2023-03-04T02:53:44;0.60;99.90
77207;DHT22;66190;50.708;7.906;2023-03-04T02:56:09;0.50;99.90
77207;DHT22;66190;50.708;7.906;2023-03-04T02:58:35;0.50;99.90
77207;DHT22;66190;50.708;7.906;2023-03-04T03:01:05;0.50;99.90
77207;DHT22;66190;50.708;7.906;2023-03-04T03:03:31;0.50;99.90
77207;DHT22;66190;50.708;7.906;2023-03-04T03:05:56;0.50;99.90
77207;DHT22;66190;50.708;7.906;2023-03-04T03:08:22;0.50;99.90
77207;DHT22;66190;50.708;7.906;2023-03-04T03:10:48;0.50;99.90
77207;DHT22;66190;50.708;7.906;2023-03-04T03:13:14;0.40;99.90
77207;DHT22;66190;50.708;7.906;2023-03-04T03:15:39;0.50;99.90
77207;DHT22;66190;50.708;7.906;2023-03-04T03:18:08;0.50;99.90
77207;DHT22;66190;50.708;7.906;2023-03-04T03:20:36;0.40;99.90
77207;DHT22;66190;50.708;7.906;2023-03-04T03:23:02;0.40;99.90
77207;DHT22;66190;50.708;7.906;2023-03-04T03:25:28;0.50;99.90
77207;DHT22;66190;50.708;7.906;2023-03-04T03:27:53;0.50;99.90
77207;DHT22;66190;50.708;7.906;2023-03-04T03:30:19;0.50;99.90
77207;DHT22;66190;50.708;7.906;2023-03-04T03:32:45;0.60;99.90
77207;DHT22;66190;50.708;7.906;2023-03-04T03:35:11;0.60;99.90
77207;DHT22;66190;50.708;7.906;2023-03-04T03:37:37;0.60;99.90
77207;DHT22;66190;50.708;7.906;2023-03-04T03:40:03;0.60;99.90
77207;DHT22;66190;50.708;7.906;2023-03-04T03:42:29;0.50;99.90
77207;DHT22;66190;50.708;7.906;2023-03-04T03:44:54;0.60;99.90
77207;DHT22;66190;50.708;7.906;2023-03-04T03:47:20;0.60;99.90
77207;DHT22;66190;50.708;7.906;2023-03-04T03:49:46;0.60;99.90
77207;DHT22;66190;50.708;7.906;2023-03-04T03:52:11;0.60;99.90
77207;DHT22;66190;50.708;7.906;2023-03-04T03:54:37;0.60;99.90
77207;DHT22;66190;50.708;7.906;2023-03-04T03:57:03;0.60;99.90
77207;DHT22;66190;50.708;7.906;2023-03-04T03:59:29;0.70;99.90
77207;DHT22;66190;50.708;7.906;2023-03-04T04:01:54;0.70;99.90
77207;DHT22;66190;50.708;7.906;2023-03-04T04:04:20;0.60;99.90
77207;DHT22;66190;50.708;7.906;2023-03-04T04:06:46;0.60;99.90
77207;DHT22;66190;50.708;7.906;2023-03-04T04:09:11;0.60;99.90
77207;DHT22;66190;50.708;7.906;2023-03-04T04:11:38;0.60;99.90
77207;DHT22;66190;50.708;7.906;2023-03-04T04:14:04;0.60;99.90
77207;DHT22;66190;50.708;7.906;2023-03-04T04:16:30;0.70;99.90
77207;DHT22;66190;50.708;7.906;2023-03-04T04:18:55;0.60;99.90
77207;DHT22;66190;50.708;7.906;2023-03-04T04:21:21;0.70;99.90
77207;DHT22;66190;50.708;7.906;2023-03-04T04:23:47;0.60;99.90
77207;DHT22;66190;50.708;7.906;2023-03-04T04:26:13;0.70;99.90
77207;DHT22;66190;50.708;7.906;2023-03-04T04:28:39;0.70;99.90
77207;DHT22;66190;50.708;7.906;2023-03-04T04:31:08;0.60;99.90
77207;DHT22;66190;50.708;7.906;2023-03-04T04:33:35;0.70;99.90
77207;DHT22;66190;50.708;7.906;2023-03-04T04:36:01;0.70;99.90
77207;DHT22;66190;50.708;7.906;2023-03-04T04:38:28;0.70;99.90
77207;DHT22;66190;50.708;7.906;2023-03-04T04:40:56;0.70;99.90
77207;DHT22;66190;50.708;7.906;2023-03-04T04:43:24;0.60;99.90
77207;DHT22;66190;50.708;7.906;2023-03-04T04:45:49;0.70;99.90
77207;DHT22;66190;50.708;7.906;2023-03-04T04:48:15;0.60;99.90
77207;DHT22;66190;50.708;7.906;2023-03-04T04:50:41;0.60;99.90
77207;DHT22;66190;50.708;7.906;2023-03-04T04:53:06;0.60;99.90
77207;DHT22;66190;50.708;7.906;2023-03-04T04:55:33;0.70;99.90
77207;DHT22;66190;50.708;7.906;2023-03-04T04:57:59;0.70;99.90
77207;DHT22;66190;50.708;7.906;2023-03-04T05:00:24;0.70;99.90
77207;DHT22;66190;50.708;7.906;2023-03-04T05:02:50;0.70;99.90
77207;DHT22;66190;50.708;7.906;2023-03-04T05:05:16;0.70;99.90
77207;DHT22;66190;50.708;7.906;2023-03-04T05:07:41;0.70;99.90
77207;DHT22;66190;50.708;7.906;2023-03-04T05:10:08;0.70;99.90
77207;DHT22;66190;50.708;7.906;2023-03-04T05:12:35;0.70;99.90
77207;DHT22;66190;50.708;7.906;2023-03-04T05:15:01;0.70;99.90
77207;DHT22;66190;50.708;7.906;2023-03-04T05:17:29;0.70;99.90
77207;DHT22;66190;50.708;7.906;2023-03-04T05:19:55;0.70;99.90
77207;DHT22;66190;50.708;7.906;2023-03-04T05:22:20;0.70;99.90
77207;DHT22;66190;50.708;7.906;2023-03-04T05:24:46;0.80;99.90
77207;DHT22;66190;50.708;7.906;2023-03-04T05:27:11;0.80;99.90
77207;DHT22;66190;50.708;7.906;2023-03-04T05:29:37;0.70;99.90
77207;DHT22;66190;50.708;7.906;2023-03-04T05:32:03;0.70;99.90
77207;DHT22;66190;50.708;7.906;2023-03-04T05:34:29;0.70;99.90
77207;DHT22;66190;50.708;7.906;2023-03-04T05:36:55;0.70;99.90
77207;DHT22;66190;50.708;7.906;2023-03-04T05:39:21;0.70;99.90
77207;DHT22;66190;50.708;7.906;2023-03-04T05:41:46;0.70;99.90
77207;DHT22;66190;50.708;7.906;2023-03-04T05:44:12;0.80;99.90
77207;DHT22;66190;50.708;7.906;2023-03-04T05:46:38;0.80;99.90
77207;DHT22;66190;50.708;7.906;2023-03-04T05:49:04;0.80;99.90
77207;DHT22;66190;50.708;7.906;2023-03-04T05:51:31;0.80;99.90
77207;DHT22;66190;50.708;7.906;2023-03-04T05:53:56;0.80;99.90
77207;DHT22;66190;50.708;7.906;2023-03-04T05:56:25;0.80;99.90
77207;DHT22;66190;50.708;7.906;2023-03-04T05:58:50;0.80;99.90
77207;DHT22;66190;50.708;7.906;2023-03-04T06:01:17;0.80;99.90
77207;DHT22;66190;50.708;7.906;2023-03-04T06:03:43;0.80;99.90
77207;DHT22;66190;50.708;7.906;2023-03-04T06:06:09;0.80;99.90
77207;DHT22;66190;50.708;7.906;2023-03-04T06:08:35;0.80;99.90
77207;DHT22;66190;50.708;7.906;2023-03-04T06:11:01;0.80;99.90
77207;DHT22;66190;50.708;7.906;2023-03-04T06:13:30;0.80;99.90
77207;DHT22;66190;50.708;7.906;2023-03-04T06:15:58;0.90;99.90
77207;DHT22;66190;50.708;7.906;2023-03-04T06:18:25;0.80;99.90
77207;DHT22;66190;50.708;7.906;2023-03-04T06:21:03;0.90;99.90
77207;DHT22;66190;50.708;7.906;2023-03-04T06:23:30;0.90;99.90
77207;DHT22;66190;50.708;7.906;2023-03-04T06:25:57;0.90;99.90
77207;DHT22;66190;50.708;7.906;2023-03-04T06:28:23;0.80;99.90
77207;DHT22;66190;50.708;7.906;2023-03-04T06:30:53;0.80;99.90
77207;DHT22;66190;50.708;7.906;2023-03-04T06:33:19;0.80;99.90
77207;DHT22;66190;50.708;7.906;2023-03-04T06:35:45;0.80;99.90
77207;DHT22;66190;50.708;7.906;2023-03-04T06:38:10;0.80;99.90
77207;DHT22;66190;50.708;7.906;2023-03-04T06:40:36;0.80;99.90
77207;DHT22;66190;50.708;7.906;2023-03-04T06:43:02;0.80;99.90
77207;DHT22;66190;50.708;7.906;2023-03-04T06:45:27;0.80;99.90
77207;DHT22;66190;50.708;7.906;2023-03-04T06:47:53;0.80;99.90
77207;DHT22;66190;50.708;7.906;2023-03-04T06:50:19;0.90;99.90
77207;DHT22;66190;50.708;7.906;2023-03-04T06:52:44;0.90;99.90
77207;DHT22;66190;50.708;7.906;2023-03-04T06:55:10;0.90;99.90
77207;DHT22;66190;50.708;7.906;2023-03-04T06:57:37;0.90;99.90
77207;DHT22;66190;50.708;7.906;2023-03-04T07:00:04;0.90;99.90
77207;DHT22;66190;50.708;7.906;2023-03-04T07:02:32;0.90;99.90
77207;DHT22;66190;50.708;7.906;2023-03-04T07:04:57;1.00;99.90
77207;DHT22;66190;50.708;7.906;2023-03-04T07:07:23;1.00;99.90
77207;DHT22;66190;50.708;7.906;2023-03-04T07:09:51;1.00;99.90
77207;DHT22;66190;50.708;7.906;2023-03-04T07:12:19;1.00;99.90
77207;DHT22;66190;50.708;7.906;2023-03-04T07:14:44;1.00;99.90
77207;DHT22;66190;50.708;7.906;2023-03-04T07:17:10;1.00;99.90
77207;DHT22;66190;50.708;7.906;2023-03-04T07:19:36;1.00;99.90
77207;DHT22;66190;50.708;7.906;2023-03-04T07:22:02;1.10;99.90
77207;DHT22;66190;50.708;7.906;2023-03-04T07:24:30;1.10;99.90
77207;DHT22;66190;50.708;7.906;2023-03-04T07:26:56;1.10;99.90
77207;DHT22;66190;50.708;7.906;2023-03-04T07:29:22;1.20;99.90
77207;DHT22;66190;50.708;7.906;2023-03-04T07:31:47;1.20;99.90
77207;DHT22;66190;50.708;7.906;2023-03-04T07:34:13;1.20;99.90
77207;DHT22;66190;50.708;7.906;2023-03-04T07:36:39;1.20;99.90
77207;DHT22;66190;50.708;7.906;2023-03-04T07:39:06;1.20;99.90
77207;DHT22;66190;50.708;7.906;2023-03-04T07:41:33;1.20;99.90
77207;DHT22;66190;50.708;7.906;2023-03-04T07:44:02;1.20;99.90
77207;DHT22;66190;50.708;7.906;2023-03-04T07:46:34;1.30;99.90
77207;DHT22;66190;50.708;7.906;2023-03-04T07:49:02;1.30;99.90
77207;DHT22;66190;50.708;7.906;2023-03-04T07:51:28;1.20;99.90
77207;DHT22;66190;50.708;7.906;2023-03-04T07:53:56;1.20;99.90
77207;DHT22;66190;50.708;7.906;2023-03-04T07:56:25;1.20;99.90
77207;DHT22;66190;50.708;7.906;2023-03-04T07:58:51;1.20;99.90
77207;DHT22;66190;50.708;7.906;2023-03-04T08:01:22;1.20;99.90
77207;DHT22;66190;50.708;7.906;2023-03-04T08:03:48;1.30;99.90
77207;DHT22;66190;50.708;7.906;2023-03-04T08:06:16;1.30;99.90
77207;DHT22;66190;50.708;7.906;2023-03-04T08:08:42;1.30;99.90
77207;DHT22;66190;50.708;7.906;2023-03-04T08:11:13;1.40;99.90
77207;DHT22;66190;50.708;7.906;2023-03-04T08:13:40;1.40;99.90
77207;DHT22;66190;50.708;7.906;2023-03-04T08:16:06;1.40;99.90
77207;DHT22;66190;50.708;7.906;2023-03-04T08:18:33;1.40;99.90
77207;DHT22;66190;50.708;7.906;2023-03-04T08:20:59;1.40;99.90
77207;DHT22;66190;50.708;7.906;2023-03-04T08:23:25;1.40;99.90
77207;DHT22;66190;50.708;7.906;2023-03-04T08:25:50;1.40;99.90
77207;DHT22;66190;50.708;7.906;2023-03-04T08:28:16;1.50;99.90
77207;DHT22;66190;50.708;7.906;2023-03-04T08:30:42;1.50;99.90
77207;DHT22;66190;50.708;7.906;2023-03-04T08:33:09;1.50;99.90
77207;DHT22;66190;50.708;7.906;2023-03-04T08:35:39;1.60;99.90
77207;DHT22;66190;50.708;7.906;2023-03-04T08:38:05;1.50;99.90
77207;DHT22;66190;50.708;7.906;2023-03-04T08:40:31;1.50;99.90
77207;DHT22;66190;50.708;7.906;2023-03-04T08:42:58;1.50;99.90
77207;DHT22;66190;50.708;7.906;2023-03-04T08:45:24;1.60;99.90
77207;DHT22;66190;50.708;7.906;2023-03-04T08:47:50;1.60;99.90
77207;DHT22;66190;50.708;7.906;2023-03-04T08:50:16;1.60;99.90
77207;DHT22;66190;50.708;7.906;2023-03-04T08:52:42;1.70;99.90
77207;DHT22;66190;50.708;7.906;2023-03-04T08:55:08;1.70;99.90
77207;DHT22;66190;50.708;7.906;2023-03-04T08:57:33;1.70;99.90
77207;DHT22;66190;50.708;7.906;2023-03-04T08:59:59;1.70;99.90
77207;DHT22;66190;50.708;7.906;2023-03-04T09:02:26;1.70;99.90
77207;DHT22;66190;50.708;7.906;2023-03-04T09:04:51;1.80;99.90
77207;DHT22;66190;50.708;7.906;2023-03-04T09:07:17;1.80;99.90
77207;DHT22;66190;50.708;7.906;2023-03-04T09:09:43;1.80;99.90
77207;DHT22;66190;50.708;7.906;2023-03-04T09:12:09;1.80;99.90
77207;DHT22;66190;50.708;7.906;2023-03-04T09:14:35;1.80;99.90
77207;DHT22;66190;50.708;7.906;2023-03-04T09:17:04;1.90;99.90
77207;DHT22;66190;50.708;7.906;2023-03-04T09:19:30;1.90;99.90
77207;DHT22;66190;50.708;7.906;2023-03-04T09:21:55;1.90;99.90
77207;DHT22;66190;50.708;7.906;2023-03-04T09:24:24;2.00;99.90
77207;DHT22;66190;50.708;7.906;2023-03-04T09:26:52;2.00;99.90
77207;DHT22;66190;50.708;7.906;2023-03-04T09:29:18;2.00;99.90
77207;DHT22;66190;50.708;7.906;2023-03-04T09:31:43;2.00;99.90
77207;DHT22;66190;50.708;7.906;2023-03-04T09:34:09;2.00;99.90
77207;DHT22;66190;50.708;7.906;2023-03-04T09:36:35;2.10;99.90
77207;DHT22;66190;50.708;7.906;2023-03-04T09:39:05;2.00;99.90
77207;DHT22;66190;50.708;7.906;2023-03-04T09:41:47;2.00;99.90
77207;DHT22;66190;50.708;7.906;2023-03-04T09:44:22;2.10;99.90
77207;DHT22;66190;50.708;7.906;2023-03-04T09:46:49;2.10;99.90
77207;DHT22;66190;50.708;7.906;2023-03-04T09:49:15;2.10;99.90
77207;DHT22;66190;50.708;7.906;2023-03-04T09:54:34;2.20;99.90
77207;DHT22;66190;50.708;7.906;2023-03-04T09:57:22;2.20;99.90
77207;DHT22;66190;50.708;7.906;2023-03-04T10:03:23;2.30;99.90
77207;DHT22;66190;50.708;7.906;2023-03-04T10:06:22;2.40;99.90
77207;DHT22;66190;50.708;7.906;2023-03-04T10:09:01;2.30;99.90
77207;DHT22;66190;50.708;7.906;2023-03-04T10:24:46;2.90;99.90
77207;DHT22;66190;50.708;7.906;2023-03-04T10:27:14;2.90;99.90
77207;DHT22;66190;50.708;7.906;2023-03-04T10:29:41;3.10;99.90
77207;DHT22;66190;50.708;7.906;2023-03-04T10:32:15;3.10;99.90
77207;DHT22;66190;50.708;7.906;2023-03-04T10:34:42;3.20;99.90
77207;DHT22;66190;50.708;7.906;2023-03-04T10:37:08;3.40;99.90
77207;DHT22;66190;50.708;7.906;2023-03-04T10:39:41;3.50;99.90
77207;DHT22;66190;50.708;7.906;2023-03-04T10:44:51;3.20;99.90
77207;DHT22;66190;50.708;7.906;2023-03-04T10:47:23;3.40;99.90
77207;DHT22;66190;50.708;7.906;2023-03-04T10:54:53;3.70;99.90
77207;DHT22;66190;50.708;7.906;2023-03-04T10:57:32;3.70;99.90
77207;DHT22;66190;50.708;7.906;2023-03-04T11:00:17;3.40;99.90
77207;DHT22;66190;50.708;7.906;2023-03-04T11:02:45;3.40;99.90
77207;DHT22;66190;50.708;7.906;2023-03-04T11:07:47;3.60;99.90
77207;DHT22;66190;50.708;7.906;2023-03-04T11:10:28;3.60;99.90
77207;DHT22;66190;50.708;7.906;2023-03-04T11:13:21;3.80;99.90
77207;DHT22;66190;50.708;7.906;2023-03-04T11:18:23;3.80;99.90
77207;DHT22;66190;50.708;7.906;2023-03-04T11:20:53;3.80;99.90
77207;DHT22;66190;50.708;7.906;2023-03-04T11:23:38;3.80;99.90
77207;DHT22;66190;50.708;7.906;2023-03-04T11:26:13;3.50;99.90
77207;DHT22;66190;50.708;7.906;2023-03-04T11:28:58;3.40;99.90
77207;DHT22;66190;50.708;7.906;2023-03-04T11:32:03;3.40;99.90
77207;DHT22;66190;50.708;7.906;2023-03-04T11:34:45;3.30;99.90
77207;DHT22;66190;50.708;7.906;2023-03-04T11:37:38;3.60;99.90
77207;DHT22;66190;50.708;7.906;2023-03-04T11:40:14;3.60;99.90
77207;DHT22;66190;50.708;7.906;2023-03-04T11:42:56;3.70;99.90
77207;DHT22;66190;50.708;7.906;2023-03-04T11:45:35;3.80;99.90
77207;DHT22;66190;50.708;7.906;2023-03-04T11:48:36;3.90;99.90
77207;DHT22;66190;50.708;7.906;2023-03-04T11:59:56;3.80;99.90
77207;DHT22;66190;50.708;7.906;2023-03-04T12:02:31;3.90;99.90
77207;DHT22;66190;50.708;7.906;2023-03-04T12:05:19;3.90;99.90
77207;DHT22;66190;50.708;7.906;2023-03-04T12:13:57;4.20;99.90
77207;DHT22;66190;50.708;7.906;2023-03-04T12:16:53;4.20;99.90
77207;DHT22;66190;50.708;7.906;2023-03-04T12:22:03;4.10;99.90
77207;DHT22;66190;50.708;7.906;2023-03-04T12:27:22;4.10;99.90
77207;DHT22;66190;50.708;7.906;2023-03-04T12:29:58;4.10;99.90
77207;DHT22;66190;50.708;7.906;2023-03-04T12:37:50;4.00;99.90
77207;DHT22;66190;50.708;7.906;2023-03-04T12:43:26;3.90;99.90
77207;DHT22;66190;50.708;7.906;2023-03-04T12:46:26;3.90;99.90
77207;DHT22;66190;50.708;7.906;2023-03-04T12:54:55;3.80;99.90
77207;DHT22;66190;50.708;7.906;2023-03-04T12:57:26;3.70;99.90
77207;DHT22;66190;50.708;7.906;2023-03-04T13:00:07;3.80;99.90
77207;DHT22;66190;50.708;7.906;2023-03-04T13:08:26;4.00;99.90
77207;DHT22;66190;50.708;7.906;2023-03-04T13:16:56;4.10;99.90
77207;DHT22;66190;50.708;7.906;2023-03-04T13:19:45;4.00;99.90
77207;DHT22;66190;50.708;7.906;2023-03-04T13:27:48;4.00;99.90
77207;DHT22;66190;50.708;7.906;2023-03-04T13:38:36;4.00;99.90
77207;DHT22;66190;50.708;7.906;2023-03-04T13:43:53;3.90;99.90
77207;DHT22;66190;50.708;7.906;2023-03-04T13:56:39;3.70;99.90
77207;DHT22;66190;50.708;7.906;2023-03-04T14:01:58;3.70;99.90
77207;DHT22;66190;50.708;7.906;2023-03-04T14:04:31;3.70;99.90
77207;DHT22;66190;50.708;7.906;2023-03-04T14:06:59;3.60;99.90
77207;DHT22;66190;50.708;7.906;2023-03-04T14:09:30;3.60;99.90
77207;DHT22;66190;50.708;7.906;2023-03-04T14:12:02;3.70;99.90
77207;DHT22;66190;50.708;7.906;2023-03-04T14:14:53;3.70;99.90
77207;DHT22;66190;50.708;7.906;2023-03-04T14:17:22;3.70;99.90
77207;DHT22;66190;50.708;7.906;2023-03-04T14:19:49;3.70;99.90
77207;DHT22;66190;50.708;7.906;2023-03-04T14:27:34;3.80;99.90
77207;DHT22;66190;50.708;7.906;2023-03-04T14:30:03;3.80;99.90
77207;DHT22;66190;50.708;7.906;2023-03-04T14:32:30;3.70;99.90
77207;DHT22;66190;50.708;7.906;2023-03-04T14:35:17;3.70;99.90
77207;DHT22;66190;50.708;7.906;2023-03-04T14:37:56;3.70;99.90
77207;DHT22;66190;50.708;7.906;2023-03-04T14:40:44;3.80;99.90
77207;DHT22;66190;50.708;7.906;2023-03-04T14:43:19;3.70;99.90
77207;DHT22;66190;50.708;7.906;2023-03-04T14:45:48;3.70;99.90
77207;DHT22;66190;50.708;7.906;2023-03-04T14:48:33;3.60;99.90
77207;DHT22;66190;50.708;7.906;2023-03-04T14:51:00;3.70;99.90
77207;DHT22;66190;50.708;7.906;2023-03-04T14:53:28;3.60;99.90
77207;DHT22;66190;50.708;7.906;2023-03-04T14:58:27;3.60;99.90
77207;DHT22;66190;50.708;7.906;2023-03-04T15:01:28;3.70;99.90
77207;DHT22;66190;50.708;7.906;2023-03-04T15:03:59;3.70;99.90
77207;DHT22;66190;50.708;7.906;2023-03-04T15:06:27;3.60;99.90
77207;DHT22;66190;50.708;7.906;2023-03-04T15:09:02;3.70;99.90
77207;DHT22;66190;50.708;7.906;2023-03-04T15:11:48;3.60;99.90
77207;DHT22;66190;50.708;7.906;2023-03-04T15:14:46;3.60;99.90
77207;DHT22;66190;50.708;7.906;2023-03-04T15:17:37;3.70;99.90
77207;DHT22;66190;50.708;7.906;2023-03-04T15:23:04;3.60;99.90
77207;DHT22;66190;50.708;7.906;2023-03-04T15:25:32;3.70;99.90
77207;DHT22;66190;50.708;7.906;2023-03-04T15:27:58;3.60;99.90
77207;DHT22;66190;50.708;7.906;2023-03-04T15:30:30;3.60;99.90
77207;DHT22;66190;50.708;7.906;2023-03-04T15:32:57;3.70;99.90
77207;DHT22;66190;50.708;7.906;2023-03-04T15:35:24;3.70;99.90
77207;DHT22;66190;50.708;7.906;2023-03-04T15:37:51;3.70;99.90
77207;DHT22;66190;50.708;7.906;2023-03-04T15:40:26;3.70;99.90
77207;DHT22;66190;50.708;7.906;2023-03-04T15:42:54;3.70;99.90
77207;DHT22;66190;50.708;7.906;2023-03-04T15:45:27;3.60;99.90
77207;DHT22;66190;50.708;7.906;2023-03-04T15:47:53;3.60;99.90
77207;DHT22;66190;50.708;7.906;2023-03-04T15:50:20;3.60;99.90
77207;DHT22;66190;50.708;7.906;2023-03-04T15:52:46;3.60;99.90
77207;DHT22;66190;50.708;7.906;2023-03-04T15:55:19;3.60;99.90
77207;DHT22;66190;50.708;7.906;2023-03-04T15:57:52;3.60;99.90
77207;DHT22;66190;50.708;7.906;2023-03-04T16:00:18;3.60;99.90
77207;DHT22;66190;50.708;7.906;2023-03-04T16:02:44;3.50;99.90
77207;DHT22;66190;50.708;7.906;2023-03-04T16:05:14;3.60;99.90
77207;DHT22;66190;50.708;7.906;2023-03-04T16:07:43;3.50;99.90
77207;DHT22;66190;50.708;7.906;2023-03-04T16:10:29;3.60;99.90
77207;DHT22;66190;50.708;7.906;2023-03-04T16:12:55;3.60;99.90
77207;DHT22;66190;50.708;7.906;2023-03-04T16:15:26;3.60;99.90
77207;DHT22;66190;50.708;7.906;2023-03-04T16:17:53;3.60;99.90
77207;DHT22;66190;50.708;7.906;2023-03-04T16:20:28;3.60;99.90
77207;DHT22;66190;50.708;7.906;2023-03-04T16:22:57;3.60;99.90
77207;DHT22;66190;50.708;7.906;2023-03-04T16:25:24;3.60;99.90
77207;DHT22;66190;50.708;7.906;2023-03-04T16:27:51;3.60;99.90
77207;DHT22;66190;50.708;7.906;2023-03-04T16:30:20;3.50;99.90
77207;DHT22;66190;50.708;7.906;2023-03-04T16:32:46;3.50;99.90
77207;DHT22;66190;50.708;7.906;2023-03-04T16:35:18;3.50;99.90
77207;DHT22;66190;50.708;7.906;2023-03-04T16:37:44;3.50;99.90
77207;DHT22;66190;50.708;7.906;2023-03-04T16:40:15;3.50;99.90
77207;DHT22;66190;50.708;7.906;2023-03-04T16:42:42;3.50;99.90
77207;DHT22;66190;50.708;7.906;2023-03-04T16:45:20;3.60;99.90
77207;DHT22;66190;50.708;7.906;2023-03-04T16:47:47;3.50;99.90
77207;DHT22;66190;50.708;7.906;2023-03-04T16:50:21;3.60;99.90
77207;DHT22;66190;50.708;7.906;2023-03-04T16:52:49;3.50;99.90
77207;DHT22;66190;50.708;7.906;2023-03-04T16:55:27;3.60;99.90
77207;DHT22;66190;50.708;7.906;2023-03-04T16:57:54;3.60;99.90
77207;DHT22;66190;50.708;7.906;2023-03-04T17:00:23;3.60;99.90
77207;DHT22;66190;50.708;7.906;2023-03-04T17:02:59;3.60;99.90
77207;DHT22;66190;50.708;7.906;2023-03-04T17:05:29;3.50;99.90
77207;DHT22;66190;50.708;7.906;2023-03-04T17:07:57;3.50;99.90
77207;DHT22;66190;50.708;7.906;2023-03-04T17:10:23;3.50;99.90
77207;DHT22;66190;50.708;7.906;2023-03-04T17:12:50;3.50;99.90
77207;DHT22;66190;50.708;7.906;2023-03-04T17:15:16;3.50;99.90
77207;DHT22;66190;50.708;7.906;2023-03-04T17:17:43;3.60;99.90
77207;DHT22;66190;50.708;7.906;2023-03-04T17:20:16;3.50;99.90
77207;DHT22;66190;50.708;7.906;2023-03-04T17:22:47;3.50;99.90
77207;DHT22;66190;50.708;7.906;2023-03-04T17:25:15;3.50;99.90
77207;DHT22;66190;50.708;7.906;2023-03-04T17:27:41;3.50;99.90
77207;DHT22;66190;50.708;7.906;2023-03-04T17:30:08;3.50;99.90
77207;DHT22;66190;50.708;7.906;2023-03-04T17:32:34;3.50;99.90
77207;DHT22;66190;50.708;7.906;2023-03-04T17:35:02;3.50;99.90
77207;DHT22;66190;50.708;7.906;2023-03-04T17:37:30;3.50;99.90
77207;DHT22;66190;50.708;7.906;2023-03-04T17:39:56;3.50;99.90
77207;DHT22;66190;50.708;7.906;2023-03-04T17:42:21;3.50;99.90
77207;DHT22;66190;50.708;7.906;2023-03-04T17:44:47;3.50;99.90
77207;DHT22;66190;50.708;7.906;2023-03-04T17:47:13;3.50;99.90
77207;DHT22;66190;50.708;7.906;2023-03-04T17:49:40;3.50;99.90
77207;DHT22;66190;50.708;7.906;2023-03-04T17:52:06;3.50;99.90
77207;DHT22;66190;50.708;7.906;2023-03-04T17:54:31;3.50;99.90
77207;DHT22;66190;50.708;7.906;2023-03-04T17:56:57;3.60;99.90
77207;DHT22;66190;50.708;7.906;2023-03-04T17:59:23;3.60;99.90